Terminal Aerodrome Forecast
Issued by NWS

Home | Current Version | Previous Version | Text Only | Print | Product List | Glossary On
Versions: 1 2 3 4 5 6 7 8 9 10 11 12 13
357
FTUS44 KCRP 211726
TAFLRD
TAF
KLRD 211726Z 2118/2218 15015G22KT P6SM SCT035
     FM212000 15012G18KT P6SM VCTS BKN050CB
     FM220200 13014KT P6SM SCT250
     FM220900 13010KT P6SM OVC035
     FM221600 16014G20KT P6SM OVC025=

USA.gov is the U.S. government's official web portal to all federal, state and local government web resources and services.